Terminal Aerodrome Forecast
Issued by NWS

Home | Current Version | Previous Version | Text Only | Print | Product List | Glossary On
Versions: 1 2 3 4 5 6 7 8 9 10 11 12 13 14 15 16 17 18 19 20 21 22 23 24 25 26
134
FTUS43 KDLH 231423 AAB
TAFHYR
TAF AMD
KHYR 231423Z 2314/2412 00000KT 4SM -FZDZSN OVC015
     FM231500 VRB02KT 4SM -FZDZ OVC012
     FM231800 28005KT P6SM OVC012
     FM240500 23004KT P6SM SCT015=

USA.gov is the U.S. government's official web portal to all federal, state and local government web resources and services.